sensor_id;sensor_type;location;lat;lon;timestamp;temperature;humidity
23271;DHT22;11804;51.118;17.058;2022-12-18T00:00:00;-3.40;99.90
23271;DHT22;11804;51.118;17.058;2022-12-18T00:02:28;-3.40;99.90
23271;DHT22;11804;51.118;17.058;2022-12-18T00:04:55;-3.40;99.90
23271;DHT22;11804;51.118;17.058;2022-12-18T00:07:25;-3.50;99.90
23271;DHT22;11804;51.118;17.058;2022-12-18T00:09:52;-3.50;99.90
23271;DHT22;11804;51.118;17.058;2022-12-18T00:12:22;-3.50;99.90
23271;DHT22;11804;51.118;17.058;2022-12-18T00:14:51;-3.50;99.90
23271;DHT22;11804;51.118;17.058;2022-12-18T00:17:19;-3.50;99.90
23271;DHT22;11804;51.118;17.058;2022-12-18T00:19:48;-3.50;99.90
23271;DHT22;11804;51.118;17.058;2022-12-18T00:22:16;-3.50;99.90
23271;DHT22;11804;51.118;17.058;2022-12-18T00:24:43;-3.50;99.90
23271;DHT22;11804;51.118;17.058;2022-12-18T00:27:11;-3.40;99.90
23271;DHT22;11804;51.118;17.058;2022-12-18T00:29:40;-3.40;99.90
23271;DHT22;11804;51.118;17.058;2022-12-18T00:32:07;-3.40;99.90
23271;DHT22;11804;51.118;17.058;2022-12-18T00:34:35;-3.40;99.90
23271;DHT22;11804;51.118;17.058;2022-12-18T00:37:02;-3.40;99.90
23271;DHT22;11804;51.118;17.058;2022-12-18T00:39:30;-3.40;99.90
23271;DHT22;11804;51.118;17.058;2022-12-18T00:41:59;-3.40;99.90
23271;DHT22;11804;51.118;17.058;2022-12-18T00:44:46;-3.40;99.90
23271;DHT22;11804;51.118;17.058;2022-12-18T00:47:14;-3.40;99.90
23271;DHT22;11804;51.118;17.058;2022-12-18T00:49:41;-3.40;99.90
23271;DHT22;11804;51.118;17.058;2022-12-18T00:52:09;-3.40;99.90
23271;DHT22;11804;51.118;17.058;2022-12-18T00:54:36;-3.40;99.90
23271;DHT22;11804;51.118;17.058;2022-12-18T00:57:04;-3.50;99.90
23271;DHT22;11804;51.118;17.058;2022-12-18T00:59:31;-3.50;99.90
23271;DHT22;11804;51.118;17.058;2022-12-18T01:01:59;-3.40;99.90
23271;DHT22;11804;51.118;17.058;2022-12-18T01:04:27;-3.40;99.90
23271;DHT22;11804;51.118;17.058;2022-12-18T01:06:54;-3.40;99.90
23271;DHT22;11804;51.118;17.058;2022-12-18T01:09:22;-3.40;99.90
23271;DHT22;11804;51.118;17.058;2022-12-18T01:11:49;-3.40;99.90
23271;DHT22;11804;51.118;17.058;2022-12-18T01:14:17;-3.40;99.90
23271;DHT22;11804;51.118;17.058;2022-12-18T01:16:45;-3.30;99.90
23271;DHT22;11804;51.118;17.058;2022-12-18T01:19:13;-3.30;99.90
23271;DHT22;11804;51.118;17.058;2022-12-18T01:21:40;-3.30;99.90
23271;DHT22;11804;51.118;17.058;2022-12-18T01:24:09;-3.40;99.90
23271;DHT22;11804;51.118;17.058;2022-12-18T01:26:37;-3.40;99.90
23271;DHT22;11804;51.118;17.058;2022-12-18T01:29:05;-3.30;99.90
23271;DHT22;11804;51.118;17.058;2022-12-18T01:31:33;-3.30;99.90
23271;DHT22;11804;51.118;17.058;2022-12-18T01:34:02;-3.30;99.90
23271;DHT22;11804;51.118;17.058;2022-12-18T01:36:32;-3.30;99.90
23271;DHT22;11804;51.118;17.058;2022-12-18T01:39:06;-3.30;99.90
23271;DHT22;11804;51.118;17.058;2022-12-18T01:41:35;-3.30;99.90
23271;DHT22;11804;51.118;17.058;2022-12-18T01:47:46;-3.30;99.90
23271;DHT22;11804;51.118;17.058;2022-12-18T01:50:17;-3.30;99.90
23271;DHT22;11804;51.118;17.058;2022-12-18T01:52:56;-3.30;99.90
23271;DHT22;11804;51.118;17.058;2022-12-18T01:55:23;-3.20;99.90
23271;DHT22;11804;51.118;17.058;2022-12-18T01:57:54;-3.20;99.90
23271;DHT22;11804;51.118;17.058;2022-12-18T02:00:22;-3.20;99.90
23271;DHT22;11804;51.118;17.058;2022-12-18T02:02:51;-3.30;99.90
23271;DHT22;11804;51.118;17.058;2022-12-18T02:05:29;-3.30;99.90
23271;DHT22;11804;51.118;17.058;2022-12-18T02:08:22;-3.20;99.90
23271;DHT22;11804;51.118;17.058;2022-12-18T02:11:07;-3.20;99.90
23271;DHT22;11804;51.118;17.058;2022-12-18T02:13:43;-3.20;99.90
23271;DHT22;11804;51.118;17.058;2022-12-18T02:19:06;-3.20;99.90
23271;DHT22;11804;51.118;17.058;2022-12-18T02:21:40;-3.30;99.90
23271;DHT22;11804;51.118;17.058;2022-12-18T02:26:55;-3.20;99.90
23271;DHT22;11804;51.118;17.058;2022-12-18T02:29:24;-3.20;99.90
23271;DHT22;11804;51.118;17.058;2022-12-18T02:31:56;-3.20;99.90
23271;DHT22;11804;51.118;17.058;2022-12-18T02:34:30;-3.20;99.90
23271;DHT22;11804;51.118;17.058;2022-12-18T02:37:01;-3.20;99.90
23271;DHT22;11804;51.118;17.058;2022-12-18T02:39:30;-3.10;99.90
23271;DHT22;11804;51.118;17.058;2022-12-18T02:41:59;-3.20;99.90
23271;DHT22;11804;51.118;17.058;2022-12-18T02:44:29;-3.20;99.90
23271;DHT22;11804;51.118;17.058;2022-12-18T02:46:56;-3.20;99.90
23271;DHT22;11804;51.118;17.058;2022-12-18T02:59:55;-3.10;99.90
23271;DHT22;11804;51.118;17.058;2022-12-18T03:05:22;-3.00;99.90
23271;DHT22;11804;51.118;17.058;2022-12-18T03:08:04;-3.10;99.90
23271;DHT22;11804;51.118;17.058;2022-12-18T03:10:35;-3.00;99.90
23271;DHT22;11804;51.118;17.058;2022-12-18T03:13:05;-3.10;99.90
23271;DHT22;11804;51.118;17.058;2022-12-18T03:15:38;-3.10;99.90
23271;DHT22;11804;51.118;17.058;2022-12-18T03:18:14;-3.10;99.90
23271;DHT22;11804;51.118;17.058;2022-12-18T03:20:40;-3.10;99.90
23271;DHT22;11804;51.118;17.058;2022-12-18T03:23:11;-3.00;99.90
23271;DHT22;11804;51.118;17.058;2022-12-18T03:25:41;-3.10;99.90
23271;DHT22;11804;51.118;17.058;2022-12-18T03:28:15;-3.10;99.90
23271;DHT22;11804;51.118;17.058;2022-12-18T03:30:46;-3.10;99.90
23271;DHT22;11804;51.118;17.058;2022-12-18T03:33:19;-3.10;99.90
23271;DHT22;11804;51.118;17.058;2022-12-18T03:35:48;-3.10;99.90
23271;DHT22;11804;51.118;17.058;2022-12-18T03:38:16;-3.20;99.90
23271;DHT22;11804;51.118;17.058;2022-12-18T03:40:52;-3.20;99.90
23271;DHT22;11804;51.118;17.058;2022-12-18T03:43:23;-3.20;99.90
23271;DHT22;11804;51.118;17.058;2022-12-18T03:45:54;-3.20;99.90
23271;DHT22;11804;51.118;17.058;2022-12-18T03:48:31;-3.20;99.90
23271;DHT22;11804;51.118;17.058;2022-12-18T03:51:08;-3.10;99.90
23271;DHT22;11804;51.118;17.058;2022-12-18T03:53:51;-3.10;99.90
23271;DHT22;11804;51.118;17.058;2022-12-18T03:56:18;-3.10;99.90
23271;DHT22;11804;51.118;17.058;2022-12-18T03:58:49;-3.20;99.90
23271;DHT22;11804;51.118;17.058;2022-12-18T04:01:23;-3.10;99.90
23271;DHT22;11804;51.118;17.058;2022-12-18T04:03:50;-3.10;99.90
23271;DHT22;11804;51.118;17.058;2022-12-18T04:06:18;-3.00;99.90
23271;DHT22;11804;51.118;17.058;2022-12-18T04:08:47;-3.00;99.90
23271;DHT22;11804;51.118;17.058;2022-12-18T04:11:15;-3.10;99.90
23271;DHT22;11804;51.118;17.058;2022-12-18T04:13:43;-3.10;99.90
23271;DHT22;11804;51.118;17.058;2022-12-18T04:16:11;-3.10;99.90
23271;DHT22;11804;51.118;17.058;2022-12-18T04:18:38;-3.20;99.90
23271;DHT22;11804;51.118;17.058;2022-12-18T04:21:06;-3.20;99.90
23271;DHT22;11804;51.118;17.058;2022-12-18T04:23:33;-3.10;99.90
23271;DHT22;11804;51.118;17.058;2022-12-18T04:26:01;-3.10;99.90
23271;DHT22;11804;51.118;17.058;2022-12-18T04:28:30;-3.10;99.90
23271;DHT22;11804;51.118;17.058;2022-12-18T04:30:58;-3.10;99.90
23271;DHT22;11804;51.118;17.058;2022-12-18T04:33:25;-3.10;99.90
23271;DHT22;11804;51.118;17.058;2022-12-18T04:35:53;-3.10;99.90
23271;DHT22;11804;51.118;17.058;2022-12-18T04:38:20;-3.10;99.90
23271;DHT22;11804;51.118;17.058;2022-12-18T04:40:48;-3.20;99.90
23271;DHT22;11804;51.118;17.058;2022-12-18T04:43:16;-3.10;99.90
23271;DHT22;11804;51.118;17.058;2022-12-18T04:45:44;-3.10;99.90
23271;DHT22;11804;51.118;17.058;2022-12-18T04:48:12;-3.10;99.90
23271;DHT22;11804;51.118;17.058;2022-12-18T04:50:40;-3.10;99.90
23271;DHT22;11804;51.118;17.058;2022-12-18T04:53:07;-3.10;99.90
23271;DHT22;11804;51.118;17.058;2022-12-18T04:55:35;-3.10;99.90
23271;DHT22;11804;51.118;17.058;2022-12-18T04:58:03;-3.10;99.90
23271;DHT22;11804;51.118;17.058;2022-12-18T05:00:30;-3.10;99.90
23271;DHT22;11804;51.118;17.058;2022-12-18T05:03:00;-3.10;99.90
23271;DHT22;11804;51.118;17.058;2022-12-18T05:05:28;-3.10;99.90
23271;DHT22;11804;51.118;17.058;2022-12-18T05:07:56;-3.10;99.90
23271;DHT22;11804;51.118;17.058;2022-12-18T05:10:24;-3.10;99.90
23271;DHT22;11804;51.118;17.058;2022-12-18T05:12:51;-3.10;99.90
23271;DHT22;11804;51.118;17.058;2022-12-18T05:15:30;-3.20;99.90
23271;DHT22;11804;51.118;17.058;2022-12-18T05:17:58;-3.20;99.90
23271;DHT22;11804;51.118;17.058;2022-12-18T05:20:27;-3.20;99.90
23271;DHT22;11804;51.118;17.058;2022-12-18T05:22:55;-3.30;99.90
23271;DHT22;11804;51.118;17.058;2022-12-18T05:25:24;-3.30;99.90
23271;DHT22;11804;51.118;17.058;2022-12-18T05:27:56;-3.20;99.90
23271;DHT22;11804;51.118;17.058;2022-12-18T05:30:23;-3.20;99.90
23271;DHT22;11804;51.118;17.058;2022-12-18T05:32:51;-3.20;99.90
23271;DHT22;11804;51.118;17.058;2022-12-18T05:35:19;-3.20;99.90
23271;DHT22;11804;51.118;17.058;2022-12-18T05:37:46;-3.30;99.90
23271;DHT22;11804;51.118;17.058;2022-12-18T05:40:14;-3.30;99.90
23271;DHT22;11804;51.118;17.058;2022-12-18T05:42:42;-3.30;99.90
23271;DHT22;11804;51.118;17.058;2022-12-18T05:45:11;-3.40;99.90
23271;DHT22;11804;51.118;17.058;2022-12-18T05:47:38;-3.50;99.90
23271;DHT22;11804;51.118;17.058;2022-12-18T05:50:07;-3.50;99.90
23271;DHT22;11804;51.118;17.058;2022-12-18T05:52:35;-3.50;99.90
23271;DHT22;11804;51.118;17.058;2022-12-18T05:55:02;-3.50;99.90
23271;DHT22;11804;51.118;17.058;2022-12-18T05:57:30;-3.50;99.90
23271;DHT22;11804;51.118;17.058;2022-12-18T05:59:58;-3.50;99.90
23271;DHT22;11804;51.118;17.058;2022-12-18T06:02:30;-3.50;99.90
23271;DHT22;11804;51.118;17.058;2022-12-18T06:04:55;-3.50;99.90
23271;DHT22;11804;51.118;17.058;2022-12-18T06:07:23;-3.50;99.90
23271;DHT22;11804;51.118;17.058;2022-12-18T06:09:50;-3.50;99.90
23271;DHT22;11804;51.118;17.058;2022-12-18T06:12:18;-3.50;99.90
23271;DHT22;11804;51.118;17.058;2022-12-18T06:14:45;-3.40;99.90
23271;DHT22;11804;51.118;17.058;2022-12-18T06:17:13;-3.40;99.90
23271;DHT22;11804;51.118;17.058;2022-12-18T06:19:40;-3.40;99.90
23271;DHT22;11804;51.118;17.058;2022-12-18T06:22:08;-3.30;99.90
23271;DHT22;11804;51.118;17.058;2022-12-18T06:24:36;-3.30;99.90
23271;DHT22;11804;51.118;17.058;2022-12-18T06:27:04;-3.40;99.90
23271;DHT22;11804;51.118;17.058;2022-12-18T06:29:31;-3.50;99.90
23271;DHT22;11804;51.118;17.058;2022-12-18T06:31:59;-3.60;99.90
23271;DHT22;11804;51.118;17.058;2022-12-18T06:34:26;-3.60;99.90
23271;DHT22;11804;51.118;17.058;2022-12-18T06:36:54;-3.60;99.90
23271;DHT22;11804;51.118;17.058;2022-12-18T06:39:23;-3.50;99.90
23271;DHT22;11804;51.118;17.058;2022-12-18T06:41:51;-3.50;99.90
23271;DHT22;11804;51.118;17.058;2022-12-18T06:44:19;-3.50;99.90
23271;DHT22;11804;51.118;17.058;2022-12-18T06:46:47;-3.40;99.90
23271;DHT22;11804;51.118;17.058;2022-12-18T06:49:15;-3.40;99.90
23271;DHT22;11804;51.118;17.058;2022-12-18T06:51:42;-3.40;99.90
23271;DHT22;11804;51.118;17.058;2022-12-18T06:54:10;-3.60;99.90
23271;DHT22;11804;51.118;17.058;2022-12-18T06:56:38;-3.60;99.90
23271;DHT22;11804;51.118;17.058;2022-12-18T06:59:05;-3.50;99.90
23271;DHT22;11804;51.118;17.058;2022-12-18T07:01:33;-3.50;99.90
23271;DHT22;11804;51.118;17.058;2022-12-18T07:04:00;-3.60;99.90
23271;DHT22;11804;51.118;17.058;2022-12-18T07:06:28;-3.60;99.90
23271;DHT22;11804;51.118;17.058;2022-12-18T07:08:56;-3.70;99.90
23271;DHT22;11804;51.118;17.058;2022-12-18T07:11:24;-3.80;99.90
23271;DHT22;11804;51.118;17.058;2022-12-18T07:13:52;-3.90;99.90
23271;DHT22;11804;51.118;17.058;2022-12-18T07:16:21;-4.10;99.90
23271;DHT22;11804;51.118;17.058;2022-12-18T07:18:49;-4.00;99.90
23271;DHT22;11804;51.118;17.058;2022-12-18T07:21:19;-3.80;99.90
23271;DHT22;11804;51.118;17.058;2022-12-18T07:23:47;-3.60;99.90
23271;DHT22;11804;51.118;17.058;2022-12-18T07:26:17;-3.60;99.90
23271;DHT22;11804;51.118;17.058;2022-12-18T07:28:45;-3.60;99.90
23271;DHT22;11804;51.118;17.058;2022-12-18T07:31:19;-3.60;99.90
23271;DHT22;11804;51.118;17.058;2022-12-18T07:33:47;-3.60;99.90
23271;DHT22;11804;51.118;17.058;2022-12-18T07:36:15;-3.50;99.90
23271;DHT22;11804;51.118;17.058;2022-12-18T07:38:42;-3.70;99.90
23271;DHT22;11804;51.118;17.058;2022-12-18T07:41:11;-3.90;99.90
23271;DHT22;11804;51.118;17.058;2022-12-18T07:43:40;-3.90;99.90
23271;DHT22;11804;51.118;17.058;2022-12-18T07:46:09;-3.90;99.90
23271;DHT22;11804;51.118;17.058;2022-12-18T07:48:37;-4.00;99.90
23271;DHT22;11804;51.118;17.058;2022-12-18T07:51:06;-3.80;99.90
23271;DHT22;11804;51.118;17.058;2022-12-18T07:53:35;-3.80;99.90
23271;DHT22;11804;51.118;17.058;2022-12-18T07:56:06;-3.90;99.90
23271;DHT22;11804;51.118;17.058;2022-12-18T07:58:35;-3.70;99.90
23271;DHT22;11804;51.118;17.058;2022-12-18T08:01:08;-3.60;99.90
23271;DHT22;11804;51.118;17.058;2022-12-18T08:03:37;-3.40;99.90
23271;DHT22;11804;51.118;17.058;2022-12-18T08:06:07;-3.50;99.90
23271;DHT22;11804;51.118;17.058;2022-12-18T08:08:35;-3.50;99.90
23271;DHT22;11804;51.118;17.058;2022-12-18T08:11:03;-3.60;99.90
23271;DHT22;11804;51.118;17.058;2022-12-18T08:13:31;-3.60;99.90
23271;DHT22;11804;51.118;17.058;2022-12-18T08:16:04;-3.50;99.90
23271;DHT22;11804;51.118;17.058;2022-12-18T08:18:38;-3.40;99.90
23271;DHT22;11804;51.118;17.058;2022-12-18T08:21:21;-3.50;99.90
23271;DHT22;11804;51.118;17.058;2022-12-18T08:23:44;-3.50;99.90
23271;DHT22;11804;51.118;17.058;2022-12-18T08:26:13;-3.50;99.90
23271;DHT22;11804;51.118;17.058;2022-12-18T08:28:41;-3.50;99.90
23271;DHT22;11804;51.118;17.058;2022-12-18T08:31:09;-3.50;99.90
23271;DHT22;11804;51.118;17.058;2022-12-18T08:33:38;-3.50;99.90
23271;DHT22;11804;51.118;17.058;2022-12-18T08:36:06;-3.50;99.90
23271;DHT22;11804;51.118;17.058;2022-12-18T08:38:34;-3.50;99.90
23271;DHT22;11804;51.118;17.058;2022-12-18T08:41:04;-3.40;99.90
23271;DHT22;11804;51.118;17.058;2022-12-18T08:43:32;-3.30;99.90
23271;DHT22;11804;51.118;17.058;2022-12-18T08:46:19;-3.30;99.90
23271;DHT22;11804;51.118;17.058;2022-12-18T08:48:47;-3.30;99.90
23271;DHT22;11804;51.118;17.058;2022-12-18T08:51:16;-3.30;99.90
23271;DHT22;11804;51.118;17.058;2022-12-18T08:53:44;-3.30;99.90
23271;DHT22;11804;51.118;17.058;2022-12-18T08:56:12;-3.20;99.90
23271;DHT22;11804;51.118;17.058;2022-12-18T08:58:42;-3.20;99.90
23271;DHT22;11804;51.118;17.058;2022-12-18T09:01:11;-3.20;99.90
23271;DHT22;11804;51.118;17.058;2022-12-18T09:03:40;-3.20;99.90
23271;DHT22;11804;51.118;17.058;2022-12-18T09:06:09;-3.20;99.90
23271;DHT22;11804;51.118;17.058;2022-12-18T09:08:36;-3.20;99.90
23271;DHT22;11804;51.118;17.058;2022-12-18T09:11:04;-3.10;99.90
23271;DHT22;11804;51.118;17.058;2022-12-18T09:13:32;-3.10;99.90
23271;DHT22;11804;51.118;17.058;2022-12-18T09:16:00;-3.10;99.90
23271;DHT22;11804;51.118;17.058;2022-12-18T09:18:29;-3.10;99.90
23271;DHT22;11804;51.118;17.058;2022-12-18T09:20:56;-3.00;99.90
23271;DHT22;11804;51.118;17.058;2022-12-18T09:23:24;-3.00;99.90
23271;DHT22;11804;51.118;17.058;2022-12-18T09:25:52;-3.10;99.90
23271;DHT22;11804;51.118;17.058;2022-12-18T09:28:21;-3.10;99.90
23271;DHT22;11804;51.118;17.058;2022-12-18T09:30:49;-3.10;99.90
23271;DHT22;11804;51.118;17.058;2022-12-18T09:33:17;-3.40;99.90
23271;DHT22;11804;51.118;17.058;2022-12-18T09:35:45;-3.50;99.90
23271;DHT22;11804;51.118;17.058;2022-12-18T09:38:16;-3.50;99.90
23271;DHT22;11804;51.118;17.058;2022-12-18T09:40:57;-3.30;99.90
23271;DHT22;11804;51.118;17.058;2022-12-18T09:43:30;-3.30;99.90
23271;DHT22;11804;51.118;17.058;2022-12-18T09:46:00;-3.10;99.90
23271;DHT22;11804;51.118;17.058;2022-12-18T09:48:34;-3.30;99.90
23271;DHT22;11804;51.118;17.058;2022-12-18T09:51:09;-3.30;99.90
23271;DHT22;11804;51.118;17.058;2022-12-18T09:53:37;-3.40;99.90
23271;DHT22;11804;51.118;17.058;2022-12-18T09:56:10;-3.10;99.90
23271;DHT22;11804;51.118;17.058;2022-12-18T09:58:53;-3.00;99.90
23271;DHT22;11804;51.118;17.058;2022-12-18T10:01:23;-3.10;99.90
23271;DHT22;11804;51.118;17.058;2022-12-18T10:03:52;-3.10;99.90
23271;DHT22;11804;51.118;17.058;2022-12-18T10:09:20;-3.20;99.90
23271;DHT22;11804;51.118;17.058;2022-12-18T10:14:29;-3.00;99.90
23271;DHT22;11804;51.118;17.058;2022-12-18T10:19:44;-3.30;99.90
23271;DHT22;11804;51.118;17.058;2022-12-18T10:25:02;-3.00;99.90
23271;DHT22;11804;51.118;17.058;2022-12-18T10:27:30;-2.90;99.90
23271;DHT22;11804;51.118;17.058;2022-12-18T10:29:58;-2.90;99.90
23271;DHT22;11804;51.118;17.058;2022-12-18T10:32:30;-3.10;99.90
23271;DHT22;11804;51.118;17.058;2022-12-18T10:35:01;-3.10;99.90
23271;DHT22;11804;51.118;17.058;2022-12-18T10:37:29;-3.10;99.90
23271;DHT22;11804;51.118;17.058;2022-12-18T10:40:08;-3.00;99.90
23271;DHT22;11804;51.118;17.058;2022-12-18T10:42:38;-3.00;99.90
23271;DHT22;11804;51.118;17.058;2022-12-18T10:45:12;-3.00;99.90
23271;DHT22;11804;51.118;17.058;2022-12-18T10:47:48;-3.00;99.90
23271;DHT22;11804;51.118;17.058;2022-12-18T10:50:25;-3.00;99.90
23271;DHT22;11804;51.118;17.058;2022-12-18T10:52:56;-3.20;99.90
23271;DHT22;11804;51.118;17.058;2022-12-18T10:55:39;-3.20;99.90
23271;DHT22;11804;51.118;17.058;2022-12-18T11:01:07;-3.30;99.90
23271;DHT22;11804;51.118;17.058;2022-12-18T11:03:38;-3.00;99.90
23271;DHT22;11804;51.118;17.058;2022-12-18T11:06:09;-3.20;99.90
23271;DHT22;11804;51.118;17.058;2022-12-18T11:08:37;-3.10;99.90
23271;DHT22;11804;51.118;17.058;2022-12-18T11:11:09;-3.10;99.90
23271;DHT22;11804;51.118;17.058;2022-12-18T11:13:36;-3.10;99.90
23271;DHT22;11804;51.118;17.058;2022-12-18T11:16:03;-3.20;99.90
23271;DHT22;11804;51.118;17.058;2022-12-18T11:18:35;-3.30;99.90
23271;DHT22;11804;51.118;17.058;2022-12-18T11:21:09;-3.00;99.90
23271;DHT22;11804;51.118;17.058;2022-12-18T11:23:51;-2.90;99.90
23271;DHT22;11804;51.118;17.058;2022-12-18T11:26:20;-3.30;99.90
23271;DHT22;11804;51.118;17.058;2022-12-18T11:28:51;-3.60;99.90
23271;DHT22;11804;51.118;17.058;2022-12-18T11:31:28;-3.70;99.90
23271;DHT22;11804;51.118;17.058;2022-12-18T11:36:40;-3.60;99.90
23271;DHT22;11804;51.118;17.058;2022-12-18T11:39:35;-3.50;99.90
23271;DHT22;11804;51.118;17.058;2022-12-18T11:42:59;-3.30;99.90
23271;DHT22;11804;51.118;17.058;2022-12-18T11:44:53;-3.00;99.90
23271;DHT22;11804;51.118;17.058;2022-12-18T11:47:27;-2.80;99.90
23271;DHT22;11804;51.118;17.058;2022-12-18T11:50:00;-2.80;99.90
23271;DHT22;11804;51.118;17.058;2022-12-18T11:52:38;-3.10;99.90
23271;DHT22;11804;51.118;17.058;2022-12-18T12:00:47;-3.40;99.90
23271;DHT22;11804;51.118;17.058;2022-12-18T12:03:22;-3.20;99.90
23271;DHT22;11804;51.118;17.058;2022-12-18T12:08:58;-3.00;99.90
23271;DHT22;11804;51.118;17.058;2022-12-18T12:11:35;-2.90;99.90
23271;DHT22;11804;51.118;17.058;2022-12-18T12:22:14;-2.70;99.90
23271;DHT22;11804;51.118;17.058;2022-12-18T12:24:48;-2.60;99.90
23271;DHT22;11804;51.118;17.058;2022-12-18T12:30:11;-2.60;99.90
23271;DHT22;11804;51.118;17.058;2022-12-18T12:35:42;-2.70;99.90
23271;DHT22;11804;51.118;17.058;2022-12-18T12:38:15;-2.80;99.90
23271;DHT22;11804;51.118;17.058;2022-12-18T12:40:56;-2.60;99.90
23271;DHT22;11804;51.118;17.058;2022-12-18T12:43:38;-2.70;99.90
23271;DHT22;11804;51.118;17.058;2022-12-18T12:51:31;-3.30;99.90
23271;DHT22;11804;51.118;17.058;2022-12-18T12:54:02;-3.50;99.90
23271;DHT22;11804;51.118;17.058;2022-12-18T12:56:56;-3.60;99.90
23271;DHT22;11804;51.118;17.058;2022-12-18T12:59:15;-3.60;99.90
23271;DHT22;11804;51.118;17.058;2022-12-18T13:04:39;-3.70;99.90
23271;DHT22;11804;51.118;17.058;2022-12-18T13:15:47;-3.30;99.90
23271;DHT22;11804;51.118;17.058;2022-12-18T13:18:20;-3.30;99.90
23271;DHT22;11804;51.118;17.058;2022-12-18T13:23:36;-3.20;99.90
23271;DHT22;11804;51.118;17.058;2022-12-18T13:34:28;-3.70;99.90
23271;DHT22;11804;51.118;17.058;2022-12-18T13:39:44;-3.80;99.90
23271;DHT22;11804;51.118;17.058;2022-12-18T13:44:58;-3.50;99.90
23271;DHT22;11804;51.118;17.058;2022-12-18T13:47:36;-3.40;99.90
23271;DHT22;11804;51.118;17.058;2022-12-18T13:50:20;-3.40;99.90
23271;DHT22;11804;51.118;17.058;2022-12-18T13:52:47;-3.30;99.90
23271;DHT22;11804;51.118;17.058;2022-12-18T13:55:19;-3.30;99.90
23271;DHT22;11804;51.118;17.058;2022-12-18T13:57:49;-3.30;99.90
23271;DHT22;11804;51.118;17.058;2022-12-18T14:00:27;-3.40;99.90
23271;DHT22;11804;51.118;17.058;2022-12-18T14:02:56;-3.30;99.90
23271;DHT22;11804;51.118;17.058;2022-12-18T14:08:04;-3.60;99.90
23271;DHT22;11804;51.118;17.058;2022-12-18T14:10:32;-3.80;99.90
23271;DHT22;11804;51.118;17.058;2022-12-18T14:13:08;-3.80;99.90
23271;DHT22;11804;51.118;17.058;2022-12-18T14:15:43;-4.00;99.90
23271;DHT22;11804;51.118;17.058;2022-12-18T14:18:23;-4.00;99.90
23271;DHT22;11804;51.118;17.058;2022-12-18T14:20:59;-4.10;99.90
23271;DHT22;11804;51.118;17.058;2022-12-18T14:23:37;-4.10;99.90
23271;DHT22;11804;51.118;17.058;2022-12-18T14:26:27;-4.10;99.90
23271;DHT22;11804;51.118;17.058;2022-12-18T14:28:57;-4.00;99.90
23271;DHT22;11804;51.118;17.058;2022-12-18T14:31:29;-4.00;99.90
23271;DHT22;11804;51.118;17.058;2022-12-18T14:33:57;-4.00;99.90
23271;DHT22;11804;51.118;17.058;2022-12-18T14:36:27;-4.00;99.90
23271;DHT22;11804;51.118;17.058;2022-12-18T14:38:57;-4.00;99.90
23271;DHT22;11804;51.118;17.058;2022-12-18T14:41:26;-4.00;99.90
23271;DHT22;11804;51.118;17.058;2022-12-18T14:43:56;-4.10;99.90
23271;DHT22;11804;51.118;17.058;2022-12-18T14:46:35;-3.90;99.90
23271;DHT22;11804;51.118;17.058;2022-12-18T14:49:04;-3.90;99.90
23271;DHT22;11804;51.118;17.058;2022-12-18T14:51:34;-4.00;99.90
23271;DHT22;11804;51.118;17.058;2022-12-18T14:54:05;-4.10;99.90
23271;DHT22;11804;51.118;17.058;2022-12-18T14:56:42;-4.10;99.90
23271;DHT22;11804;51.118;17.058;2022-12-18T14:59:15;-4.20;99.90
23271;DHT22;11804;51.118;17.058;2022-12-18T15:04:40;-3.90;99.90
23271;DHT22;11804;51.118;17.058;2022-12-18T15:07:13;-4.00;99.90
23271;DHT22;11804;51.118;17.058;2022-12-18T15:09:43;-4.00;99.90
23271;DHT22;11804;51.118;17.058;2022-12-18T15:12:26;-4.20;99.90
23271;DHT22;11804;51.118;17.058;2022-12-18T15:14:50;-4.20;99.90
23271;DHT22;11804;51.118;17.058;2022-12-18T15:17:20;-4.20;99.90
23271;DHT22;11804;51.118;17.058;2022-12-18T15:19:51;-4.20;99.90
23271;DHT22;11804;51.118;17.058;2022-12-18T15:22:33;-4.30;99.90
23271;DHT22;11804;51.118;17.058;2022-12-18T15:24:56;-4.20;99.90
23271;DHT22;11804;51.118;17.058;2022-12-18T15:27:34;-4.20;99.90
23271;DHT22;11804;51.118;17.058;2022-12-18T15:32:44;-4.00;99.90
23271;DHT22;11804;51.118;17.058;2022-12-18T15:35:23;-4.00;99.90
23271;DHT22;11804;51.118;17.058;2022-12-18T15:37:51;-3.90;99.90
23271;DHT22;11804;51.118;17.058;2022-12-18T15:40:21;-3.90;99.90
23271;DHT22;11804;51.118;17.058;2022-12-18T15:42:52;-4.10;99.90
23271;DHT22;11804;51.118;17.058;2022-12-18T15:45:39;-4.00;99.90
23271;DHT22;11804;51.118;17.058;2022-12-18T15:48:22;-4.10;99.90
23271;DHT22;11804;51.118;17.058;2022-12-18T15:50:53;-4.20;99.90
23271;DHT22;11804;51.118;17.058;2022-12-18T15:53:25;-4.20;99.90
23271;DHT22;11804;51.118;17.058;2022-12-18T15:55:53;-4.10;99.90
23271;DHT22;11804;51.118;17.058;2022-12-18T15:58:38;-4.20;99.90
23271;DHT22;11804;51.118;17.058;2022-12-18T16:01:08;-4.30;99.90
23271;DHT22;11804;51.118;17.058;2022-12-18T16:03:36;-4.50;99.90
23271;DHT22;11804;51.118;17.058;2022-12-18T16:06:04;-4.50;99.90
23271;DHT22;11804;51.118;17.058;2022-12-18T16:08:32;-4.60;99.90
23271;DHT22;11804;51.118;17.058;2022-12-18T16:11:02;-4.60;99.90
23271;DHT22;11804;51.118;17.058;2022-12-18T16:13:38;-4.50;99.90
23271;DHT22;11804;51.118;17.058;2022-12-18T16:16:08;-4.50;99.90
23271;DHT22;11804;51.118;17.058;2022-12-18T16:18:35;-4.50;99.90
23271;DHT22;11804;51.118;17.058;2022-12-18T16:21:03;-4.60;99.90
23271;DHT22;11804;51.118;17.058;2022-12-18T16:23:31;-4.70;99.90
23271;DHT22;11804;51.118;17.058;2022-12-18T16:25:58;-4.70;99.90
23271;DHT22;11804;51.118;17.058;2022-12-18T16:28:26;-4.70;99.90
23271;DHT22;11804;51.118;17.058;2022-12-18T16:30:53;-4.80;99.90
23271;DHT22;11804;51.118;17.058;2022-12-18T16:33:22;-4.80;99.90
23271;DHT22;11804;51.118;17.058;2022-12-18T16:35:53;-4.90;99.90
23271;DHT22;11804;51.118;17.058;2022-12-18T16:38:21;-4.90;99.90
23271;DHT22;11804;51.118;17.058;2022-12-18T16:40:49;-4.90;99.90
23271;DHT22;11804;51.118;17.058;2022-12-18T16:43:35;-5.00;99.90
23271;DHT22;11804;51.118;17.058;2022-12-18T16:46:03;-5.00;99.90
23271;DHT22;11804;51.118;17.058;2022-12-18T16:48:32;-5.10;99.90
23271;DHT22;11804;51.118;17.058;2022-12-18T16:51:03;-5.10;99.90
23271;DHT22;11804;51.118;17.058;2022-12-18T16:53:33;-5.10;99.90
23271;DHT22;11804;51.118;17.058;2022-12-18T16:56:03;-5.10;99.90
23271;DHT22;11804;51.118;17.058;2022-12-18T16:58:43;-5.10;99.90
23271;DHT22;11804;51.118;17.058;2022-12-18T17:01:11;-5.20;99.90
23271;DHT22;11804;51.118;17.058;2022-12-18T17:03:38;-5.30;99.90
23271;DHT22;11804;51.118;17.058;2022-12-18T17:06:07;-5.30;99.90
23271;DHT22;11804;51.118;17.058;2022-12-18T17:08:34;-5.40;99.90
23271;DHT22;11804;51.118;17.058;2022-12-18T17:11:08;-5.40;99.90
23271;DHT22;11804;51.118;17.058;2022-12-18T17:13:35;-5.40;99.90
23271;DHT22;11804;51.118;17.058;2022-12-18T17:16:04;-5.40;99.90
23271;DHT22;11804;51.118;17.058;2022-12-18T17:18:32;-5.40;99.90